Terminal Aerodrome Forecast
Issued by NWS Twin Cities, MN

Home | Current Version | Previous Version | Graphics & Text | Print | Product List | Glossary On
Versions: 1 2 3 4 5 6 7 8 9 10 11 12 13 14 15 16 17 18 19 20 21 22 23 24 25 26 27 28 29 30
000
FTUS43 KMPX 201720
TAFMSP
TAF
KMSP 201720Z 2018/2124 14010KT 5SM -RA BR BKN012 OVC025
     FM202000 17009KT 4SM -RA BR BKN008 OVC015
      TEMPO 2020/2024 2SM -SHRA BR SCT008 OVC015
     FM210200 22008KT 5SM BR VCSH BKN012 OVC025
     FM210300 28009KT P6SM SCT030
     FM211000 21003KT 4SM BR SCT015
     FM211400 18008KT P6SM SCT250=

USA.gov is the U.S. government's official web portal to all federal, state and local government web resources and services.